• Join FlightAware (Why Join?)
  • Login
  • US Flag 
04:30PM EDT


 

Airport Tracker/Info


-or-


 

Live Flight TrackerFlight Track Log ✈ AAL672 ✈ 15-Aug-2013 ✈ TIST / STT - KMIA

Flight Track Log - Related Links

Times and Time Zones

All times are in EDT time to prevent confusion due to time zone crossing. See the AAL672 flight status page for this flight to view local times or setup timezone preferences in your user account.

Time Position Orientation Groundspeed Altitude Reporting Facility
EDT Latitude Longitude Course Direction KTS MPH feet Rate Location/Type
04:35PM 18.3333 -64.9333 282° West 160 184 1,500  Level San Juan Center
04:36PM 18.2833 -64.9333 180° South 230 265 3,600 2,520 Climbing San Juan Center
04:37PM 18.2898 -65.2010 258° West  Level FlightAware Approximate
04:37PM 18.2333 -65.0167 238° Southwest 290 334 6,700  Level San Juan Center
04:38PM 18.2984 -65.3179 283° West  Level FlightAware Approximate
04:38PM 18.2500 -65.1000 282° West 300 345 9,700  Level San Juan Center
04:39PM 18.3236 -65.4344 282° West  Level FlightAware Approximate
04:39PM 18.2833 -65.1833 293° West 340 391 11,800  Level San Juan Center
04:40PM 18.3469 -65.5514 282° West  Level FlightAware Approximate
04:40PM 18.3333 -65.2667 302° West 380 437 13,900  Level San Juan Center
04:41PM 18.4000 -65.3667 305° West 390 449 16,400 2,280 Climbing San Juan Center
04:42PM 18.4500 -65.4667 298° West 400 460 18,500 2,040 Climbing San Juan Center
04:43PM 18.5167 -65.5667 305° West 420 483 20,600 2,040 Climbing San Juan Center
04:44PM 18.6000 -65.6667 311° West 420 483 22,600 1,920 Climbing San Juan Center
04:45PM 18.6667 -65.7667 305° West 440 506 24,500 1,740 Climbing San Juan Center
04:46PM 18.7333 -65.8833 301° West 450 518 26,200 1,560 Climbing San Juan Center
04:47PM 18.8167 -65.9833 311° West 460 529 27,700 1,380 Climbing San Juan Center
04:48PM 18.9000 -66.1000 307° West 470 541 29,100 1,380 Climbing San Juan Center
04:49PM 18.9667 -66.2167 301° West 480 552 30,500 1,440 Climbing San Juan Center
04:50PM 19.0500 -66.3333 307° West 490 564 32,000 720 Climbing San Juan Center
04:51PM 19.1333 -66.4500 307° West 490 564 32,000  Level San Juan Center
04:52PM 19.2167 -66.5667 307° West 490 564 32,000  Level San Juan Center
04:53PM 19.3000 -66.6833 307° West 480 552 32,000  Level San Juan Center
04:54PM 19.3667 -66.7833 305° West 480 552 32,000  Level San Juan Center
04:55PM 19.4500 -66.9167 304° West 480 552 32,000  Level San Juan Center
04:56PM 19.5333 -67.0333 307° West 480 552 32,000  Level San Juan Center
04:57PM 19.6167 -67.1500 307° West 490 564 32,000  Level San Juan Center
04:58PM 19.6833 -67.2500 305° West 480 552 32,000  Level San Juan Center
04:59PM 19.7500 -67.3667 301° West 460 529 32,000  Level San Juan Center
05:00PM 19.8167 -67.4833 301° West 480 552 32,000  Level San Juan Center
05:01PM 19.9000 -67.6000 307° West 480 552 32,000  Level San Juan Center
05:02PM 19.9833 -67.7167 307° West 480 552 32,000  Level San Juan Center
05:03PM 20.0500 -67.8333 301° West 480 552 32,000  Level San Juan Center
05:04PM 20.1333 -67.9500 307° West 480 552 32,000  Level San Juan Center
05:05PM 20.2078 -68.0753 302° West 480 552 32,000  Level Miami Center
05:06PM 20.2833 -68.1961 304° West 480 552 32,000  Level Miami Center
05:07PM 20.3464 -68.3203 298° West 485 558 32,000  Level Miami Center
05:08PM 20.4114 -68.4464 299° West 485 558 32,000  Level Miami Center
05:09PM 20.4725 -68.5753 297° West 485 558 32,000  Level Miami Center
05:10PM 20.5375 -68.7039 298° West 485 558 32,000  Level Miami Center
05:11PM 20.6025 -68.8303 299° West 490 564 32,000  Level Miami Center
05:12PM 20.6633 -68.9594 297° West 490 564 32,000  Level Miami Center
05:13PM 20.7258 -69.0864 298° West 490 564 32,000  Level Miami Center
05:14PM 20.7867 -69.2181 296° West 490 564 32,000  Level Miami Center
05:15PM 20.8511 -69.3431 299° West 490 564 32,000  Level Miami Center
05:16PM 20.9133 -69.4703 298° West 490 564 32,000  Level Miami Center
05:17PM 20.9758 -69.6000 297° West 485 558 32,000  Level Miami Center
05:18PM 21.0422 -69.7275 299° West 485 558 32,000  Level Miami Center
05:19PM 21.1003 -69.8553 296° West 485 558 32,000  Level Miami Center
05:20PM 21.1664 -69.9831 299° West 479 551 32,000  Level Miami Center
05:21PM 21.2283 -70.1111 297° West 479 551 32,000  Level Miami Center
05:22PM 21.2881 -70.2369 297° West 479 551 32,000  Level Miami Center
05:23PM 21.3428 -70.3478 298° West 479 551 32,000  Level Miami Center
05:24PM 21.4092 -70.4894 297° West 484 557 32,000  Level Miami Center
05:25PM 21.4706 -70.6156 298° West 478 550 32,000  Level Miami Center
05:26PM 21.5319 -70.7375 298° West 478 550 32,000  Level Miami Center
05:27PM 21.5911 -70.8642 297° West 478 550 32,000  Level Miami Center
05:28PM 21.6483 -70.9956 295° West 484 557 32,000  Level Miami Center
05:29PM 21.7075 -71.1244 296° West 484 557 32,000  Level Miami Center
05:30PM 21.7686 -71.2536 297° West 484 557 32,000  Level Miami Center
05:31PM 21.8294 -71.3786 298° West 484 557 32,000  Level Miami Center
05:32PM 21.8903 -71.5056 297° West 484 557 32,000  Level Miami Center
05:33PM 21.9489 -71.6331 296° West 484 557 32,000  Level Miami Center
05:34PM 22.0075 -71.7606 296° West 478 550 32,000  Level Miami Center
05:35PM 22.0658 -71.8858 297° West 478 550 32,000  Level Miami Center
05:36PM 22.1203 -72.0158 294° West 478 550 32,000  Level Miami Center
05:37PM 22.1806 -72.1458 297° West 478 550 32,000  Level Miami Center
05:38PM 22.2389 -72.2717 297° West 478 550 32,000  Level Miami Center
05:39PM 22.2950 -72.4042 295° West 478 550 32,000  Level Miami Center
05:40PM 22.3569 -72.5322 298° West 478 550 32,000  Level Miami Center
05:41PM 22.4150 -72.6606 296° West 478 550 32,000  Level Miami Center
05:42PM 22.4747 -72.7889 297° West 478 550 32,000  Level Miami Center
05:43PM 22.5325 -72.9175 296° West 478 550 32,000  Level Miami Center
05:44PM 22.5881 -73.0464 295° West 478 550 32,000  Level Miami Center
05:45PM 22.6347 -73.1619 294° West 478 550 32,000  Level Miami Center
05:46PM 22.6964 -73.2883 298° West 478 550 32,000  Level Miami Center
05:47PM 22.7536 -73.4175 296° West 478 550 32,000  Level Miami Center
05:48PM 22.8108 -73.5464 296° West 478 550 32,000  Level Miami Center
05:49PM 22.8700 -73.6758 296° West 478 550 32,000  Level Miami Center
05:50PM 22.9269 -73.8050 296° West 478 550 32,000  Level Miami Center
05:51PM 22.9858 -73.9344 296° West 478 550 32,000  Level Miami Center
05:52PM 23.0383 -74.0597 295° West 478 550 32,000  Level Miami Center
05:53PM 23.0992 -74.1894 297° West 478 550 32,000  Level Miami Center
05:54PM 23.1539 -74.3217 294° West 478 550 32,000  Level Miami Center
05:55PM 23.2211 -74.4761 295° West 478 550 32,000  Level Miami Center
05:56PM 23.2794 -74.6064 296° West 483 556 32,000  Level Miami Center
05:57PM 23.3336 -74.7342 295° West 478 550 32,000  Level Miami Center
05:58PM 23.3897 -74.8647 295° West 478 550 32,000  Level Miami Center
05:59PM 23.4456 -74.9906 296° West 473 544 32,000  Level Miami Center
06:00PM 23.4994 -75.1189 295° West 473 544 32,000  Level Miami Center
06:01PM 23.5553 -75.2472 295° West 468 539 32,000  Level Miami Center
06:02PM 23.6003 -75.3486 296° West 468 539 32,000  Level Miami Center
06:03PM 23.6644 -75.4978 295° West 462 532 32,000  Level Miami Center
06:04PM 23.7197 -75.6264 295° West 462 532 32,000  Level Miami Center
06:05PM 23.7731 -75.7531 295° West 462 532 32,000  Level Miami Center
06:06PM 23.8242 -75.8822 293° West 462 532 32,000  Level Miami Center
06:07PM 23.8772 -76.0114 294° West 462 532 32,000  Level Miami Center
06:08PM 23.9322 -76.1358 296° West 457 526 32,000  Level Miami Center
06:09PM 23.9786 -76.2631 292° West 457 526 32,000  Level Miami Center
06:10PM 23.9917 -76.4039 276° West 457 526 32,000  Level Miami Center
06:11PM 24.0214 -76.5403 283° West 457 526 32,000  Level Miami Center
06:12PM 24.0758 -76.6678 295° West 457 526 32,000  Level Miami Center
06:13PM 24.1344 -76.7997 296° West 467 537 32,000  Level Miami Center
06:14PM 24.1889 -76.9250 295° West 467 537 32,000  Level Miami Center
06:15PM 24.2453 -77.0525 296° West 460 529 32,000  Level Miami Center
06:16PM 24.3056 -77.1942 295° West 465 535 32,000  Level Miami Center
06:17PM 24.3636 -77.3219 297° West 465 535 32,000  Level Miami Center
06:18PM 24.4175 -77.4500 295° West 465 535 32,000  Level Miami Center
06:19PM 24.4736 -77.5781 296° West 465 535 32,000  Level Miami Center
06:20PM 24.5314 -77.7042 297° West 465 535 32,000  Level Miami Center
06:21PM 24.5892 -77.8300 297° West 465 535 32,000  Level Miami Center
06:22PM 24.6447 -77.9586 295° West 465 535 32,000  Level Miami Center
06:23PM 24.7022 -78.0825 297° West 465 535 32,000  Level Miami Center
06:24PM 24.7597 -78.2136 296° West 465 535 32,000  Level Miami Center
06:25PM 24.8128 -78.3403 295° West 465 535 32,000 -120 Level Miami Center
06:26PM 24.8700 -78.4692 296° West 465 535 31,800 -1,080 Descending Miami Center
06:27PM 24.9228 -78.6003 294° West 465 535 29,900 -1,800 Descending Miami Center
06:28PM 24.9797 -78.7272 296° West 465 535 28,300 -1,860 Descending Miami Center
06:29PM 25.0325 -78.8542 295° West 460 529 26,200 -2,100 Descending Miami Center
06:30PM 25.0850 -78.9767 295° West 454 522 24,200 -2,100 Descending Miami Center
06:31PM 25.1356 -79.0922 296° West 437 503 22,000 -2,340 Descending Miami Center
06:32PM 25.1819 -79.2081 294° West 425 489 19,600 -2,280 Descending Miami Center
06:33PM 25.2281 -79.3214 294° West 415 478 17,500 -2,040 Descending Miami Center
06:34PM 25.2600 -79.4069 292° West 394 453 16,100 -2,160 Descending Miami Center
06:35PM 25.3119 -79.5344 294° West 340 391 13,100 -1,860 Descending Miami Center
06:36PM 25.3481 -79.6181 296° West 348 400 12,000 -600 Descending Miami Center
06:37PM 25.3861 -79.7108 294° West 336 387 12,000 -60 Level Miami Center
06:38PM 25.4386 -79.7950 305° West 331 381 11,900 -840 Descending Miami Center
06:39PM 25.4914 -79.8769 306° West 336 387 10,400 -960 Descending Miami Center
06:40PM 25.5442 -79.9564 306° West 336 387 10,000 -300 Descending Miami Center
06:41PM 25.5947 -80.0339 306° West 324 373 9,900 -780 Descending Miami Center
06:42PM 25.6369 -80.1064 303° West 304 350 8,500 -960 Descending Miami Center
06:43PM 25.6456 -80.1872 277° West 272 313 8,000 -1,140 Descending Miami Center
06:45PM 25.6497 -80.2842 273° West 227 261 5,900 -1,740 Descending Miami Center
06:46PM 25.6647 -80.3514 284° West 219 252 4,000 -1,500 Descending Miami Center
06:47PM 25.7011 -80.4056 307° West 212 244 2,900 -1,140 Descending Miami Center
06:48PM 25.7572 -80.4094 356° North 201 231 1,800 -840 Descending Miami Center
06:49PM 25.7811 -80.3778 50° Northeast 127 146 1,200 -660 Descending Miami Center
06:50PM 25.7822 -80.3339 88° East 141 162 500 -720 Descending Miami Center